createdAt,value
2023-03-26T00:00:54.335Z,10.13
2023-03-26T00:03:22.450Z,15.85
2023-03-26T00:05:50.257Z,18.30
2023-03-26T00:08:17.009Z,7.07
2023-03-26T00:10:44.233Z,10.57
2023-03-26T00:13:11.357Z,7.03
2023-03-26T00:15:38.132Z,9.35
2023-03-26T00:18:05.808Z,9.80
2023-03-26T00:20:35.536Z,25.05
2023-03-26T00:23:02.282Z,9.35
2023-03-26T00:25:29.085Z,9.82
2023-03-26T00:27:55.790Z,13.77
2023-03-26T00:30:22.526Z,11.05
2023-03-26T00:32:53.602Z,9.90
2023-03-26T00:35:20.893Z,9.95
2023-03-26T00:37:47.922Z,10.55
2023-03-26T00:40:14.727Z,12.18
2023-03-26T00:42:42.552Z,8.23
2023-03-26T00:45:09.550Z,11.52
2023-03-26T00:47:36.722Z,14.68
2023-03-26T00:50:04.330Z,6.22
2023-03-26T00:52:31.780Z,12.25
2023-03-26T00:54:58.628Z,7.40
2023-03-26T01:00:00.229Z,7.85
2023-03-26T01:02:27.464Z,8.80
2023-03-26T01:04:56.916Z,9.68
2023-03-26T01:07:29.186Z,9.27
2023-03-26T01:09:57.758Z,9.45
2023-03-26T01:12:26.579Z,7.90
2023-03-26T01:14:54.816Z,13.88
2023-03-26T01:17:22.212Z,14.68
2023-03-26T01:19:54.531Z,10.55
2023-03-26T01:22:22.297Z,17.92
2023-03-26T01:24:53.254Z,20.08
2023-03-26T01:27:26.795Z,21.67
2023-03-26T01:29:55.697Z,29.05
2023-03-26T01:32:44.136Z,21.65
2023-03-26T01:35:22.967Z,22.40
2023-03-26T01:38:01.797Z,23.08
2023-03-26T01:40:38.694Z,32.20
2023-03-26T01:43:10.977Z,29.10
2023-03-26T01:45:39.834Z,22.90
2023-03-26T01:48:07.060Z,26.50
2023-03-26T01:50:33.775Z,24.40
2023-03-26T01:53:00.682Z,26.70
2023-03-26T01:55:37.255Z,21.85
2023-03-26T01:58:19.122Z,33.20
2023-03-26T02:00:53.593Z,29.05
2023-03-26T02:03:47.478Z,25.23
2023-03-26T02:06:26.795Z,22.20
2023-03-26T02:08:56.149Z,21.08
2023-03-26T02:11:23.401Z,20.65
2023-03-26T02:13:50.923Z,20.10
2023-03-26T02:16:19.627Z,19.35
2023-03-26T02:18:51.411Z,19.92
2023-03-26T02:21:20.543Z,19.63
2023-03-26T02:23:50.783Z,23.55
2023-03-26T02:26:19.195Z,28.15
2023-03-26T02:28:57.359Z,22.38
2023-03-26T02:31:27.397Z,25.38
2023-03-26T02:33:55.701Z,23.33
2023-03-26T02:36:27.860Z,28.15
2023-03-26T02:39:00.273Z,27.50
2023-03-26T02:41:29.249Z,27.20
2023-03-26T02:44:02.605Z,28.45
2023-03-26T02:46:47.857Z,30.55
2023-03-26T02:49:34.022Z,29.63
2023-03-26T02:52:01.242Z,34.22
2023-03-26T02:54:28.188Z,27.25
2023-03-26T02:57:15.678Z,27.10
2023-03-26T02:59:43.162Z,27.60
2023-03-26T03:02:29.564Z,23.70
2023-03-26T03:05:05.931Z,22.27
2023-03-26T03:07:37.982Z,26.55
2023-03-26T03:10:08.628Z,26.48
2023-03-26T03:12:54.446Z,26.58
2023-03-26T03:15:21.162Z,25.20
2023-03-26T03:17:47.928Z,25.83
2023-03-26T03:20:15.534Z,26.95
2023-03-26T03:22:42.544Z,28.60
2023-03-26T03:25:14.243Z,24.15
2023-03-26T03:27:42.993Z,23.73
2023-03-26T03:30:13.293Z,23.23
2023-03-26T03:32:46.195Z,25.45
2023-03-26T03:35:16.419Z,25.33
2023-03-26T03:37:47.792Z,23.60
2023-03-26T03:40:14.616Z,27.63
2023-03-26T03:42:41.692Z,26.38
2023-03-26T03:45:10.011Z,27.25
2023-03-26T03:47:55.231Z,28.35
2023-03-26T03:50:34.336Z,28.60
2023-03-26T03:53:21.638Z,32.90
2023-03-26T03:55:54.790Z,27.63
2023-03-26T03:58:28.361Z,29.20
2023-03-26T04:01:01.059Z,31.05
2023-03-26T04:03:46.520Z,35.03
2023-03-26T04:06:18.857Z,30.13
2023-03-26T04:08:51.138Z,37.60
2023-03-26T04:11:18.094Z,36.60
2023-03-26T04:14:06.048Z,26.77
2023-03-26T04:16:58.924Z,34.13
2023-03-26T04:19:27.500Z,27.83
2023-03-26T04:21:56.025Z,34.03
2023-03-26T04:24:24.581Z,31.55
2023-03-26T04:27:20.263Z,31.20
2023-03-26T04:29:48.241Z,36.38
2023-03-26T04:32:26.761Z,35.17
2023-03-26T04:34:54.544Z,37.83
2023-03-26T04:37:28.360Z,33.28
2023-03-26T04:40:11.588Z,33.78
2023-03-26T04:42:48.323Z,28.75
2023-03-26T04:45:23.322Z,31.70
2023-03-26T04:47:58.185Z,36.08
2023-03-26T04:50:26.543Z,32.85
2023-03-26T04:52:54.732Z,33.33
2023-03-26T04:55:50.417Z,41.08
2023-03-26T04:58:33.331Z,40.13
2023-03-26T05:01:10.312Z,44.47
2023-03-26T05:03:39.659Z,41.00
2023-03-26T05:06:11.000Z,35.88
2023-03-26T05:08:38.163Z,37.35
2023-03-26T05:11:11.322Z,39.53
2023-03-26T05:13:38.463Z,31.77
2023-03-26T05:16:10.992Z,38.05
2023-03-26T05:18:40.923Z,46.15
2023-03-26T05:21:09.031Z,42.97
2023-03-26T05:23:38.726Z,41.28
2023-03-26T05:26:14.229Z,38.80
2023-03-26T05:28:41.416Z,48.67
2023-03-26T05:31:37.980Z,47.70
2023-03-26T05:34:04.833Z,42.80
2023-03-26T05:36:31.706Z,39.15
2023-03-26T05:39:25.741Z,37.25
2023-03-26T05:42:15.682Z,36.58
2023-03-26T05:44:59.940Z,35.50
2023-03-26T05:47:29.788Z,34.58
2023-03-26T05:49:57.075Z,29.77
2023-03-26T05:52:24.609Z,29.88
2023-03-26T05:55:10.461Z,27.00
2023-03-26T05:57:56.442Z,28.00
2023-03-26T06:00:42.789Z,29.33
2023-03-26T06:03:13.181Z,25.98
2023-03-26T06:06:07.827Z,22.92
2023-03-26T06:08:48.937Z,25.27
2023-03-26T06:11:29.990Z,28.63
2023-03-26T06:13:56.855Z,20.63
2023-03-26T06:16:27.232Z,20.98
2023-03-26T06:19:11.237Z,21.73
2023-03-26T06:21:56.550Z,29.98
2023-03-26T06:24:29.050Z,21.70
2023-03-26T06:27:18.879Z,30.55
2023-03-26T06:30:11.847Z,33.60
2023-03-26T06:32:46.296Z,36.80
2023-03-26T06:35:18.560Z,26.30
2023-03-26T06:37:45.970Z,32.47
2023-03-26T06:40:14.171Z,23.90
2023-03-26T06:43:06.873Z,28.23
2023-03-26T06:45:57.014Z,26.52
2023-03-26T06:48:39.847Z,29.10
2023-03-26T06:51:25.336Z,20.83
2023-03-26T06:54:10.866Z,20.20
2023-03-26T06:56:49.729Z,17.77
2023-03-26T06:59:35.030Z,18.15
2023-03-26T07:02:20.721Z,20.30
2023-03-26T07:05:07.048Z,20.40
2023-03-26T07:07:52.456Z,20.15
2023-03-26T07:10:37.545Z,24.08
2023-03-26T07:13:10.331Z,23.38
2023-03-26T07:16:06.799Z,20.17
2023-03-26T07:18:55.354Z,23.83
2023-03-26T07:21:26.314Z,24.35
2023-03-26T07:23:55.091Z,28.85
2023-03-26T07:26:43.373Z,20.02
2023-03-26T07:29:24.190Z,22.20
2023-03-26T07:32:32.670Z,21.85
2023-03-26T07:35:30.361Z,21.13
2023-03-26T07:38:33.097Z,23.38
2023-03-26T07:41:32.380Z,31.75
2023-03-26T07:44:43.479Z,32.90
2023-03-26T07:47:33.291Z,22.70
2023-03-26T07:50:38.687Z,22.45
2023-03-26T07:53:12.092Z,28.85
2023-03-26T07:56:05.772Z,25.70
2023-03-26T07:58:47.486Z,25.15
2023-03-26T08:01:48.508Z,23.25
2023-03-26T08:04:38.395Z,23.60
2023-03-26T08:07:23.915Z,28.38
2023-03-26T08:10:13.314Z,26.42
2023-03-26T08:12:59.863Z,24.95
2023-03-26T08:15:31.955Z,24.38
2023-03-26T08:18:10.618Z,23.45
2023-03-26T08:20:41.689Z,28.33
2023-03-26T08:23:16.418Z,21.48
2023-03-26T08:25:46.713Z,22.15
2023-03-26T08:28:16.825Z,18.27
2023-03-26T08:30:44.219Z,20.98
2023-03-26T08:33:13.048Z,27.50
2023-03-26T08:35:42.453Z,17.95
2023-03-26T08:38:11.497Z,30.23
2023-03-26T08:40:57.812Z,24.67
2023-03-26T08:43:39.063Z,18.50
2023-03-26T08:46:15.956Z,25.35
2023-03-26T08:48:45.608Z,27.35
2023-03-26T08:51:28.048Z,20.20
2023-03-26T08:54:09.987Z,18.60
2023-03-26T08:56:46.867Z,20.98
2023-03-26T08:59:28.719Z,24.85
2023-03-26T09:02:21.667Z,25.40
2023-03-26T09:05:20.333Z,29.75
2023-03-26T09:08:05.609Z,21.42
2023-03-26T09:10:41.585Z,20.02
2023-03-26T09:13:08.252Z,16.80
2023-03-26T09:15:48.544Z,23.55
2023-03-26T09:18:34.175Z,17.35
2023-03-26T09:21:03.986Z,22.52
2023-03-26T09:23:31.010Z,22.70
2023-03-26T09:26:07.788Z,21.05
2023-03-26T09:28:53.283Z,21.25
2023-03-26T09:31:35.353Z,22.45
2023-03-26T09:34:02.287Z,16.17
2023-03-26T09:36:37.883Z,24.50
2023-03-26T09:39:04.839Z,20.55
2023-03-26T09:41:31.554Z,21.95
2023-03-26T09:44:31.315Z,19.85
2023-03-26T09:47:13.020Z,20.55
2023-03-26T09:49:50.849Z,20.95
2023-03-26T09:52:17.615Z,18.92
2023-03-26T09:54:44.767Z,17.08
2023-03-26T09:57:20.024Z,24.02
2023-03-26T09:59:53.532Z,17.80
2023-03-26T10:02:20.485Z,21.67
2023-03-26T10:04:56.243Z,15.15
2023-03-26T10:07:34.861Z,15.98
2023-03-26T10:10:07.289Z,22.75
2023-03-26T10:12:37.360Z,27.67
2023-03-26T10:15:09.819Z,19.90
2023-03-26T10:17:42.684Z,25.77
2023-03-26T10:20:36.319Z,16.45
2023-03-26T10:23:18.905Z,27.70
2023-03-26T10:25:53.667Z,21.65
2023-03-26T10:28:20.685Z,18.80
2023-03-26T10:30:59.285Z,18.42
2023-03-26T10:33:44.840Z,16.48
2023-03-26T10:36:32.469Z,16.48
2023-03-26T10:38:59.211Z,24.85
2023-03-26T10:41:41.398Z,21.92
2023-03-26T10:44:16.989Z,22.65
2023-03-26T10:46:45.483Z,17.63
2023-03-26T10:49:31.010Z,14.23
2023-03-26T10:52:09.379Z,23.38
2023-03-26T10:54:54.896Z,17.92
2023-03-26T10:57:37.390Z,17.27
2023-03-26T11:00:26.635Z,15.52
2023-03-26T11:02:56.534Z,15.98
2023-03-26T11:05:29.718Z,20.70
2023-03-26T11:08:01.293Z,29.95
2023-03-26T11:10:37.117Z,14.20
2023-03-26T11:13:06.698Z,19.80
2023-03-26T11:15:37.678Z,21.10
2023-03-26T11:18:20.695Z,21.50
2023-03-26T11:21:19.527Z,21.60
2023-03-26T11:24:04.856Z,20.48
2023-03-26T11:26:49.276Z,17.02
2023-03-26T11:29:32.744Z,20.98
2023-03-26T11:32:06.443Z,15.27
2023-03-26T11:34:51.989Z,16.55
2023-03-26T11:37:23.642Z,17.58
2023-03-26T11:39:55.132Z,16.70
2023-03-26T11:42:24.074Z,17.85
2023-03-26T11:45:00.103Z,19.50
2023-03-26T11:47:31.205Z,15.85
2023-03-26T11:49:59.024Z,20.30
2023-03-26T11:52:26.753Z,16.70
2023-03-26T11:54:54.182Z,13.85
2023-03-26T11:57:26.287Z,10.63
2023-03-26T11:59:58.070Z,14.55
2023-03-26T12:02:27.710Z,11.10
2023-03-26T12:05:08.276Z,30.08
2023-03-26T12:07:35.686Z,13.32
2023-03-26T12:10:17.723Z,25.40
2023-03-26T12:12:46.508Z,17.60
2023-03-26T12:15:17.158Z,14.52
2023-03-26T12:17:43.989Z,18.60
2023-03-26T12:20:22.829Z,15.82
2023-03-26T12:22:49.527Z,17.08
2023-03-26T12:25:21.114Z,13.85
2023-03-26T12:27:52.892Z,17.02
2023-03-26T12:30:22.818Z,14.45
2023-03-26T12:32:50.320Z,13.90
2023-03-26T12:35:26.738Z,25.95
2023-03-26T12:40:35.951Z,19.17
2023-03-26T12:44:49.410Z,22.38
2023-03-26T12:47:26.395Z,21.77
2023-03-26T12:48:41.241Z,18.77
2023-03-26T12:51:13.187Z,15.00
2023-03-26T12:53:45.898Z,18.55
2023-03-26T12:56:13.393Z,15.93
2023-03-26T12:58:55.112Z,16.52
2023-03-26T13:01:37.352Z,20.25
2023-03-26T13:04:13.618Z,13.10
2023-03-26T13:07:01.817Z,18.67
2023-03-26T13:09:29.441Z,13.50
2023-03-26T13:12:09.212Z,16.50
2023-03-26T13:14:48.121Z,12.05
2023-03-26T13:17:31.464Z,16.48
2023-03-26T13:20:07.198Z,25.67
2023-03-26T13:22:49.348Z,13.27
2023-03-26T13:25:25.571Z,16.17
2023-03-26T13:28:07.381Z,14.00
2023-03-26T13:30:42.013Z,17.98
2023-03-26T13:33:15.044Z,14.85
2023-03-26T13:35:45.031Z,15.40
2023-03-26T13:38:15.427Z,14.60
2023-03-26T13:40:51.964Z,25.52
2023-03-26T13:43:24.778Z,19.83
2023-03-26T13:45:51.591Z,15.05
2023-03-26T13:48:21.391Z,24.20
2023-03-26T13:51:06.716Z,14.82
2023-03-26T13:53:56.807Z,15.57
2023-03-26T13:56:29.610Z,20.67
2023-03-26T13:58:59.525Z,27.55
2023-03-26T14:01:36.279Z,33.38
2023-03-26T14:04:26.636Z,18.98
2023-03-26T14:06:57.511Z,24.33
2023-03-26T14:09:32.141Z,24.63
2023-03-26T14:12:02.344Z,26.15
2023-03-26T14:14:32.353Z,16.58
2023-03-26T14:17:04.936Z,20.70
2023-03-26T14:19:48.953Z,22.95
2023-03-26T14:22:27.262Z,26.02
2023-03-26T14:25:00.209Z,30.05
2023-03-26T14:30:11.393Z,23.42
2023-03-26T14:33:04.224Z,21.92
2023-03-26T14:35:41.769Z,22.55
2023-03-26T14:38:08.451Z,18.20
2023-03-26T14:40:35.729Z,18.95
2023-03-26T14:43:21.212Z,20.00
2023-03-26T14:46:14.234Z,20.05
2023-03-26T14:48:56.320Z,18.85
2023-03-26T14:51:32.320Z,25.88
2023-03-26T14:54:13.840Z,13.30
2023-03-26T14:56:53.329Z,16.98
2023-03-26T14:59:34.353Z,10.85
2023-03-26T15:02:23.228Z,9.82
2023-03-26T15:05:02.450Z,10.73
2023-03-26T15:07:51.556Z,10.20
2023-03-26T15:10:37.083Z,14.05
2023-03-26T15:13:22.366Z,8.10
2023-03-26T15:16:16.782Z,8.30
2023-03-26T15:19:03.089Z,5.95
2023-03-26T15:21:30.116Z,4.53
2023-03-26T15:24:17.063Z,7.57
2023-03-26T15:26:49.763Z,12.05
2023-03-26T15:29:16.442Z,8.10
2023-03-26T15:32:02.159Z,4.18
2023-03-26T15:34:35.077Z,12.65
2023-03-26T15:37:31.362Z,7.78
2023-03-26T15:40:16.779Z,8.68
2023-03-26T15:42:45.551Z,7.97
2023-03-26T15:45:31.314Z,8.38
2023-03-26T15:48:13.378Z,9.65
2023-03-26T15:50:58.677Z,9.30
2023-03-26T15:53:31.396Z,13.07
2023-03-26T15:56:11.394Z,12.40
2023-03-26T15:59:07.407Z,9.88
2023-03-26T16:02:02.679Z,10.55
2023-03-26T16:04:59.098Z,15.88
2023-03-26T16:07:38.318Z,12.82
2023-03-26T16:10:23.979Z,10.48
2023-03-26T16:12:56.860Z,11.95
2023-03-26T16:15:28.086Z,13.98
2023-03-26T16:18:16.913Z,14.77
2023-03-26T16:20:57.114Z,13.25
2023-03-26T16:23:24.035Z,56.85
2023-03-26T16:26:07.727Z,9.68
2023-03-26T16:28:54.988Z,13.23
2023-03-26T16:31:38.322Z,10.05
2023-03-26T16:34:08.355Z,15.68
2023-03-26T16:36:36.195Z,13.95
2023-03-26T16:39:05.709Z,12.15
2023-03-26T16:41:33.366Z,10.82
2023-03-26T16:44:13.740Z,10.20
2023-03-26T16:46:50.449Z,25.58
2023-03-26T16:49:19.949Z,34.85
2023-03-26T16:52:05.125Z,22.27
2023-03-26T16:54:47.347Z,25.35
2023-03-26T16:57:17.286Z,28.48
2023-03-26T17:00:06.667Z,56.33
2023-03-26T17:02:51.130Z,22.20
2023-03-26T17:05:36.668Z,13.85
2023-03-26T17:08:06.352Z,14.70
2023-03-26T17:10:39.885Z,12.40
2023-03-26T17:13:32.256Z,33.67
2023-03-26T17:16:12.149Z,19.70
2023-03-26T17:18:43.389Z,15.85
2023-03-26T17:21:19.859Z,13.23
2023-03-26T17:24:22.298Z,12.43
2023-03-26T17:27:03.781Z,11.60
2023-03-26T17:29:49.646Z,22.00
2023-03-26T17:32:16.544Z,15.07
2023-03-26T17:34:54.712Z,13.95
2023-03-26T17:37:21.587Z,15.45
2023-03-26T17:39:51.194Z,13.95
2023-03-26T17:42:32.760Z,15.85
2023-03-26T17:45:20.603Z,16.02
2023-03-26T17:47:54.046Z,28.00
2023-03-26T17:50:25.349Z,32.25
2023-03-26T17:53:15.157Z,19.55
2023-03-26T17:55:43.563Z,21.95
2023-03-26T17:58:25.153Z,17.02
2023-03-26T18:00:59.161Z,18.65
2023-03-26T18:03:31.238Z,16.10
2023-03-26T18:06:02.545Z,16.95
2023-03-26T18:08:35.435Z,19.13
2023-03-26T18:11:05.605Z,18.03
2023-03-26T18:13:32.321Z,19.38
2023-03-26T18:16:02.029Z,19.42
2023-03-26T18:18:41.207Z,21.13
2023-03-26T18:21:08.130Z,30.60
2023-03-26T18:23:39.124Z,19.05
2023-03-26T18:26:11.416Z,15.85
2023-03-26T18:28:43.332Z,15.30
2023-03-26T18:31:20.981Z,16.95
2023-03-26T18:33:48.575Z,19.55
2023-03-26T18:36:16.214Z,18.15
2023-03-26T18:38:43.232Z,18.73
2023-03-26T18:41:17.057Z,19.40
2023-03-26T18:43:44.410Z,17.02
2023-03-26T18:46:14.806Z,20.13
2023-03-26T18:48:41.787Z,17.20
2023-03-26T18:51:08.766Z,15.52
2023-03-26T18:53:41.154Z,19.02
2023-03-26T18:56:34.278Z,14.35
2023-03-26T18:59:02.482Z,23.63
2023-03-26T19:01:33.087Z,17.90
2023-03-26T19:04:03.873Z,16.85
2023-03-26T19:06:35.947Z,16.30
2023-03-26T19:09:13.503Z,14.20
2023-03-26T19:11:45.352Z,14.90
2023-03-26T19:14:19.813Z,14.70
2023-03-26T19:16:56.145Z,15.68
2023-03-26T19:19:25.085Z,15.10
2023-03-26T19:21:52.204Z,15.70
2023-03-26T19:24:21.169Z,13.38
2023-03-26T19:26:48.418Z,13.70
2023-03-26T19:29:17.668Z,14.20
2023-03-26T19:31:44.393Z,14.10
2023-03-26T19:34:14.290Z,13.80
2023-03-26T19:37:01.196Z,17.35
2023-03-26T19:39:40.329Z,14.05
2023-03-26T19:42:11.454Z,17.02
2023-03-26T19:44:39.717Z,17.17
2023-03-26T19:47:08.222Z,15.07
2023-03-26T19:49:47.602Z,16.70
2023-03-26T19:52:15.901Z,17.85
2023-03-26T19:55:06.783Z,15.48
2023-03-26T19:57:36.648Z,15.20
2023-03-26T20:00:05.388Z,15.70
2023-03-26T20:02:32.343Z,16.95
2023-03-26T20:04:59.093Z,15.60
2023-03-26T20:10:14.223Z,12.23
2023-03-26T20:12:41.042Z,14.73
2023-03-26T20:15:19.267Z,13.57
2023-03-26T20:17:50.012Z,14.20
2023-03-26T20:20:17.463Z,14.02
2023-03-26T20:22:46.203Z,15.35
2023-03-26T20:25:31.163Z,11.50
2023-03-26T20:27:59.211Z,16.73
2023-03-26T20:33:12.481Z,11.30
2023-03-26T20:35:40.608Z,16.85
2023-03-26T20:38:09.568Z,15.40
2023-03-26T20:40:36.868Z,15.45
2023-03-26T20:43:03.646Z,13.10
2023-03-26T20:45:30.403Z,10.95
2023-03-26T20:47:57.585Z,13.25
2023-03-26T20:50:24.689Z,15.75
2023-03-26T20:52:51.432Z,11.95
2023-03-26T20:55:21.368Z,12.40
2023-03-26T20:57:49.057Z,14.25
2023-03-26T21:00:26.164Z,13.27
2023-03-26T21:02:54.388Z,13.23
2023-03-26T21:05:24.441Z,17.92
2023-03-26T21:07:52.203Z,11.43
2023-03-26T21:10:21.928Z,11.95
2023-03-26T21:13:11.086Z,13.18
2023-03-26T21:15:37.965Z,16.02
2023-03-26T21:18:04.880Z,13.85
2023-03-26T21:20:32.778Z,12.65
2023-03-26T21:23:18.821Z,11.48
2023-03-26T21:25:55.689Z,13.85
2023-03-26T21:28:35.737Z,10.45
2023-03-26T21:31:13.609Z,13.10
2023-03-26T21:33:41.136Z,11.35
2023-03-26T21:36:08.218Z,10.95
2023-03-26T21:38:35.518Z,16.33
2023-03-26T21:41:03.494Z,13.07
2023-03-26T21:43:30.661Z,13.73
2023-03-26T21:45:58.232Z,12.68
2023-03-26T21:48:25.176Z,14.00
2023-03-26T21:50:52.033Z,12.40
2023-03-26T21:53:18.912Z,12.30
2023-03-26T21:55:45.585Z,11.00
2023-03-26T21:58:12.540Z,10.23
2023-03-26T22:00:44.030Z,11.38
2023-03-26T22:03:16.259Z,14.07
2023-03-26T22:05:55.963Z,10.95
2023-03-26T22:08:22.815Z,12.43
2023-03-26T22:10:49.866Z,12.52
2023-03-26T22:13:16.965Z,11.63
2023-03-26T22:15:44.900Z,9.65
2023-03-26T22:18:12.142Z,13.13
2023-03-26T22:20:38.970Z,15.10
2023-03-26T22:23:06.845Z,11.55
2023-03-26T22:25:33.609Z,11.20
2023-03-26T22:28:00.614Z,14.80
2023-03-26T22:30:27.899Z,13.18
2023-03-26T22:32:55.749Z,8.95
2023-03-26T22:35:22.981Z,12.02
2023-03-26T22:37:50.449Z,10.07
2023-03-26T22:40:17.966Z,11.13
2023-03-26T22:42:44.673Z,15.40
2023-03-26T22:45:11.851Z,15.73
2023-03-26T22:47:38.685Z,9.80
2023-03-26T22:50:07.502Z,8.90
2023-03-26T22:52:35.249Z,11.13
2023-03-26T22:55:02.987Z,10.32
2023-03-26T22:57:30.306Z,11.27
2023-03-26T22:59:58.281Z,15.00
2023-03-26T23:02:25.187Z,12.35
2023-03-26T23:04:52.749Z,9.80
2023-03-26T23:07:19.549Z,13.32
2023-03-26T23:09:46.602Z,14.27
2023-03-26T23:12:13.757Z,14.27
2023-03-26T23:14:41.487Z,13.30
2023-03-26T23:17:14.517Z,11.88
2023-03-26T23:19:43.331Z,10.65
2023-03-26T23:22:10.082Z,18.98
2023-03-26T23:24:39.762Z,17.92
2023-03-26T23:27:07.189Z,12.73
2023-03-26T23:29:34.367Z,12.75
2023-03-26T23:32:01.285Z,9.57
2023-03-26T23:34:28.069Z,14.25
2023-03-26T23:36:54.863Z,14.65
2023-03-26T23:39:21.564Z,18.80
2023-03-26T23:41:48.285Z,15.00
2023-03-26T23:44:16.990Z,13.93
2023-03-26T23:46:44.207Z,17.42
2023-03-26T23:49:12.106Z,15.50
2023-03-26T23:51:39.017Z,22.20
2023-03-26T23:54:05.781Z,13.95
2023-03-26T23:56:32.701Z,16.88
2023-03-26T23:59:00.594Z,15.27
